sensor_id;sensor_type;location;lat;lon;timestamp;pressure;altitude;pressure_sealevel;temperature;humidity
36234;BME280;43467;50.890;5.982;2023-01-01T00:01:22;99690.38;;;15.96;45.28
36234;BME280;43467;50.890;5.982;2023-01-01T00:03:51;99679.06;;;15.93;45.21
36234;BME280;43467;50.890;5.982;2023-01-01T00:06:17;99679.78;;;15.95;44.99
36234;BME280;43467;50.890;5.982;2023-01-01T00:08:42;99688.03;;;15.92;44.94
36234;BME280;43467;50.890;5.982;2023-01-01T00:11:08;99697.50;;;15.85;44.60
36234;BME280;43467;50.890;5.982;2023-01-01T00:13:36;99685.34;;;15.80;44.62
36234;BME280;43467;50.890;5.982;2023-01-01T00:16:10;99699.03;;;15.76;44.82
36234;BME280;43467;50.890;5.982;2023-01-01T00:18:37;99701.19;;;15.71;44.83
36234;BME280;43467;50.890;5.982;2023-01-01T00:23:28;99708.47;;;15.69;44.95
36234;BME280;43467;50.890;5.982;2023-01-01T00:25:53;99700.81;;;15.64;44.63
36234;BME280;43467;50.890;5.982;2023-01-01T00:28:19;99710.28;;;15.68;44.72
36234;BME280;43467;50.890;5.982;2023-01-01T00:30:44;99703.34;;;15.66;44.85
36234;BME280;43467;50.890;5.982;2023-01-01T00:33:09;99711.31;;;15.55;44.96
36234;BME280;43467;50.890;5.982;2023-01-01T00:35:35;99718.59;;;15.53;45.04
36234;BME280;43467;50.890;5.982;2023-01-01T00:38:00;99703.31;;;15.55;44.94
36234;BME280;43467;50.890;5.982;2023-01-01T00:40:25;99713.38;;;15.51;45.14
36234;BME280;43467;50.890;5.982;2023-01-01T00:42:51;99701.84;;;15.51;44.71
36234;BME280;43467;50.890;5.982;2023-01-01T00:45:16;99706.38;;;15.49;45.22
36234;BME280;43467;50.890;5.982;2023-01-01T00:47:42;99710.03;;;15.48;44.85
36234;BME280;43467;50.890;5.982;2023-01-01T00:50:07;99711.66;;;15.50;44.91
36234;BME280;43467;50.890;5.982;2023-01-01T00:52:33;99710.59;;;15.53;44.83
36234;BME280;43467;50.890;5.982;2023-01-01T00:54:58;99698.22;;;15.52;44.85
36234;BME280;43467;50.890;5.982;2023-01-01T00:57:23;99709.84;;;15.51;44.87
36234;BME280;43467;50.890;5.982;2023-01-01T00:59:49;99707.38;;;15.48;44.42
36234;BME280;43467;50.890;5.982;2023-01-01T01:02:14;99703.72;;;15.49;44.58
36234;BME280;43467;50.890;5.982;2023-01-01T01:04:40;99706.38;;;15.49;44.60
36234;BME280;43467;50.890;5.982;2023-01-01T01:07:05;99710.34;;;15.56;44.82
36234;BME280;43467;50.890;5.982;2023-01-01T01:09:31;99721.47;;;15.50;44.63
36234;BME280;43467;50.890;5.982;2023-01-01T01:11:56;99707.16;;;15.51;44.68
36234;BME280;43467;50.890;5.982;2023-01-01T01:14:21;99725.63;;;15.54;44.50
36234;BME280;43467;50.890;5.982;2023-01-01T01:16:47;99728.28;;;15.54;44.72
36234;BME280;43467;50.890;5.982;2023-01-01T01:19:13;99726.81;;;15.50;45.17
36234;BME280;43467;50.890;5.982;2023-01-01T01:21:43;99719.25;;;15.44;44.49
36234;BME280;43467;50.890;5.982;2023-01-01T01:24:11;99727.00;;;15.47;44.78
36234;BME280;43467;50.890;5.982;2023-01-01T01:26:37;99732.06;;;15.39;45.07
36234;BME280;43467;50.890;5.982;2023-01-01T01:29:03;99724.34;;;15.47;44.68
36234;BME280;43467;50.890;5.982;2023-01-01T01:31:30;99727.97;;;15.46;44.74
36234;BME280;43467;50.890;5.982;2023-01-01T01:33:56;99735.34;;;15.42;44.89
36234;BME280;43467;50.890;5.982;2023-01-01T01:36:22;99721.91;;;15.44;45.21
36234;BME280;43467;50.890;5.982;2023-01-01T01:38:48;99739.59;;;15.45;44.60
36234;BME280;43467;50.890;5.982;2023-01-01T01:41:16;99752.81;;;15.46;44.72
36234;BME280;43467;50.890;5.982;2023-01-01T01:48:39;99733.63;;;15.54;45.18
36234;BME280;43467;50.890;5.982;2023-01-01T01:51:06;99727.31;;;15.55;44.75
36234;BME280;43467;50.890;5.982;2023-01-01T01:53:34;99728.50;;;15.51;44.90
36234;BME280;43467;50.890;5.982;2023-01-01T01:56:06;99752.53;;;15.51;45.23
36234;BME280;43467;50.890;5.982;2023-01-01T01:58:34;99742.06;;;15.48;45.50
36234;BME280;43467;50.890;5.982;2023-01-01T02:00:59;99742.91;;;15.48;45.29
36234;BME280;43467;50.890;5.982;2023-01-01T02:03:29;99756.16;;;15.50;45.04
36234;BME280;43467;50.890;5.982;2023-01-01T02:05:57;99751.75;;;15.49;45.25
36234;BME280;43467;50.890;5.982;2023-01-01T02:08:23;99751.03;;;15.47;45.34
36234;BME280;43467;50.890;5.982;2023-01-01T02:10:49;99746.41;;;15.49;45.41
36234;BME280;43467;50.890;5.982;2023-01-01T02:13:15;99751.03;;;15.47;45.68
36234;BME280;43467;50.890;5.982;2023-01-01T02:15:54;99750.25;;;15.45;45.45
36234;BME280;43467;50.890;5.982;2023-01-01T02:18:32;99745.69;;;15.47;45.48
36234;BME280;43467;50.890;5.982;2023-01-01T02:21:07;99752.22;;;15.43;45.71
36234;BME280;43467;50.890;5.982;2023-01-01T02:29:03;99756.69;;;15.42;46.23
36234;BME280;43467;50.890;5.982;2023-01-01T02:31:36;99755.09;;;15.40;46.33
36234;BME280;43467;50.890;5.982;2023-01-01T02:34:06;99759.97;;;15.46;46.42
36234;BME280;43467;50.890;5.982;2023-01-01T02:36:38;99766.41;;;15.43;46.59
36234;BME280;43467;50.890;5.982;2023-01-01T02:39:06;99757.44;;;15.44;47.03
36234;BME280;43467;50.890;5.982;2023-01-01T02:41:42;99703.56;;;15.15;46.70
36234;BME280;43467;50.890;5.982;2023-01-01T02:44:10;99763.09;;;15.40;47.04
36234;BME280;43467;50.890;5.982;2023-01-01T02:46:36;99751.69;;;15.38;47.09
36234;BME280;43467;50.890;5.982;2023-01-01T02:49:01;99747.81;;;15.42;47.13
36234;BME280;43467;50.890;5.982;2023-01-01T03:03:07;99782.44;;;15.30;47.79
36234;BME280;43467;50.890;5.982;2023-01-01T03:06:09;99789.69;;;15.28;47.85
36234;BME280;43467;50.890;5.982;2023-01-01T03:11:20;99791.16;;;15.32;48.12
36234;BME280;43467;50.890;5.982;2023-01-01T03:16:32;99776.81;;;15.22;48.54
36234;BME280;43467;50.890;5.982;2023-01-01T03:21:50;99783.72;;;15.25;48.75
36234;BME280;43467;50.890;5.982;2023-01-01T03:24:36;99768.81;;;15.22;49.09
36234;BME280;43467;50.890;5.982;2023-01-01T03:27:12;99783.31;;;15.18;49.14
36234;BME280;43467;50.890;5.982;2023-01-01T03:29:41;99768.28;;;15.17;49.25
36234;BME280;43467;50.890;5.982;2023-01-01T03:32:11;99774.56;;;15.16;49.18
36234;BME280;43467;50.890;5.982;2023-01-01T03:34:42;99771.91;;;15.16;49.24
36234;BME280;43467;50.890;5.982;2023-01-01T03:37:13;99784.81;;;15.22;49.32
36234;BME280;43467;50.890;5.982;2023-01-01T03:39:51;99792.72;;;15.24;49.55
36234;BME280;43467;50.890;5.982;2023-01-01T03:42:39;99784.81;;;15.22;49.49
36234;BME280;43467;50.890;5.982;2023-01-01T03:45:09;99793.47;;;15.13;49.93
36234;BME280;43467;50.890;5.982;2023-01-01T03:47:36;99803.28;;;15.13;50.11
36234;BME280;43467;50.890;5.982;2023-01-01T03:50:02;99806.78;;;15.13;50.47
36234;BME280;43467;50.890;5.982;2023-01-01T03:55:58;99807.56;;;15.15;50.64
36234;BME280;43467;50.890;5.982;2023-01-01T03:58:23;99791.75;;;15.12;50.90
36234;BME280;43467;50.890;5.982;2023-01-01T04:00:56;99794.22;;;15.15;51.01
36234;BME280;43467;50.890;5.982;2023-01-01T04:03:27;99797.84;;;15.14;51.12
36234;BME280;43467;50.890;5.982;2023-01-01T04:05:53;99787.41;;;15.11;51.30
36234;BME280;43467;50.890;5.982;2023-01-01T04:08:19;99796.25;;;15.12;51.35
36234;BME280;43467;50.890;5.982;2023-01-01T04:10:48;99810.53;;;15.11;51.44
36234;BME280;43467;50.890;5.982;2023-01-01T04:13:15;99804.88;;;15.15;51.55
36234;BME280;43467;50.890;5.982;2023-01-01T04:15:40;99801.47;;;15.13;51.42
36234;BME280;43467;50.890;5.982;2023-01-01T04:18:06;99805.31;;;15.09;51.64
36234;BME280;43467;50.890;5.982;2023-01-01T04:20:31;99810.53;;;15.11;51.77
36234;BME280;43467;50.890;5.982;2023-01-01T04:22:58;99822.06;;;15.11;51.82
36234;BME280;43467;50.890;5.982;2023-01-01T04:25:24;99814.69;;;15.15;51.67
36234;BME280;43467;50.890;5.982;2023-01-01T04:27:49;99794.22;;;15.15;51.79
36234;BME280;43467;50.890;5.982;2023-01-01T04:30:15;99792.59;;;15.13;51.77
36234;BME280;43467;50.890;5.982;2023-01-01T04:32:41;99796.44;;;15.09;51.92
36234;BME280;43467;50.890;5.982;2023-01-01T04:35:08;99806.06;;;15.11;52.02
36234;BME280;43467;50.890;5.982;2023-01-01T04:37:35;99803.41;;;15.11;52.32
36234;BME280;43467;50.890;5.982;2023-01-01T04:40:01;99811.72;;;15.07;52.36
36234;BME280;43467;50.890;5.982;2023-01-01T04:42:26;99810.88;;;15.06;52.37
36234;BME280;43467;50.890;5.982;2023-01-01T04:44:52;99791.34;;;14.93;52.51
36234;BME280;43467;50.890;5.982;2023-01-01T04:47:17;99822.28;;;14.96;52.78
36234;BME280;43467;50.890;5.982;2023-01-01T04:49:42;99814.28;;;14.96;52.93
36234;BME280;43467;50.890;5.982;2023-01-01T04:52:08;99818.88;;;14.94;52.98
36234;BME280;43467;50.890;5.982;2023-01-01T04:54:33;99818.31;;;14.88;53.05
36234;BME280;43467;50.890;5.982;2023-01-01T04:56:58;99815.34;;;14.93;53.23
36234;BME280;43467;50.890;5.982;2023-01-01T04:59:24;99818.31;;;14.88;53.20
36234;BME280;43467;50.890;5.982;2023-01-01T05:01:49;99814.09;;;14.86;53.54
36234;BME280;43467;50.890;5.982;2023-01-01T05:04:15;99814.63;;;14.91;53.54
36234;BME280;43467;50.890;5.982;2023-01-01T05:06:41;99834.97;;;14.92;53.63
36234;BME280;43467;50.890;5.982;2023-01-01T05:09:10;99825.78;;;14.96;53.76
36234;BME280;43467;50.890;5.982;2023-01-01T05:11:35;99824.28;;;14.92;53.86
36234;BME280;43467;50.890;5.982;2023-01-01T05:14:01;99832.50;;;14.89;54.05
36234;BME280;43467;50.890;5.982;2023-01-01T05:16:31;99837.94;;;14.87;54.09
36234;BME280;43467;50.890;5.982;2023-01-01T05:18:56;99857.47;;;14.88;54.15
36234;BME280;43467;50.890;5.982;2023-01-01T05:21:25;99866.75;;;14.82;55.09
36234;BME280;43467;50.890;5.982;2023-01-01T05:23:55;99861.28;;;14.84;55.43
36234;BME280;43467;50.890;5.982;2023-01-01T05:26:22;99861.41;;;14.82;55.84
36234;BME280;43467;50.890;5.982;2023-01-01T05:28:48;99851.50;;;14.84;55.76
36234;BME280;43467;50.890;5.982;2023-01-01T05:31:16;99856.09;;;14.82;56.03
36234;BME280;43467;50.890;5.982;2023-01-01T05:33:42;99877.41;;;14.82;56.31
36234;BME280;43467;50.890;5.982;2023-01-01T05:36:16;99897.09;;;14.80;56.30
36234;BME280;43467;50.890;5.982;2023-01-01T05:38:42;99897.88;;;14.82;56.30
36234;BME280;43467;50.890;5.982;2023-01-01T05:41:09;99909.91;;;14.75;57.00
36234;BME280;43467;50.890;5.982;2023-01-01T05:43:35;99914.91;;;14.79;56.99
36234;BME280;43467;50.890;5.982;2023-01-01T05:46:03;99908.00;;;14.77;56.71
36234;BME280;43467;50.890;5.982;2023-01-01T05:48:29;99896.38;;;14.78;56.58
36234;BME280;43467;50.890;5.982;2023-01-01T05:51:06;99887.44;;;14.79;56.38
36234;BME280;43467;50.890;5.982;2023-01-01T05:53:32;99882.09;;;14.79;55.99
36234;BME280;43467;50.890;5.982;2023-01-01T05:55:58;99870.69;;;14.77;56.41
36234;BME280;43467;50.890;5.982;2023-01-01T05:58:25;99881.44;;;14.75;56.35
36234;BME280;43467;50.890;5.982;2023-01-01T06:00:51;99866.94;;;14.79;56.50
36234;BME280;43467;50.890;5.982;2023-01-01T06:03:17;99878.69;;;14.77;56.47
36234;BME280;43467;50.890;5.982;2023-01-01T06:05:42;99879.31;;;14.80;56.46
36234;BME280;43467;50.890;5.982;2023-01-01T06:08:08;99893.72;;;14.78;56.51
36234;BME280;43467;50.890;5.982;2023-01-01T06:10:33;99889.97;;;14.80;56.35
36234;BME280;43467;50.890;5.982;2023-01-01T06:12:58;99902.97;;;14.72;57.01
36234;BME280;43467;50.890;5.982;2023-01-01T06:15:25;99918.66;;;14.77;56.79
36234;BME280;43467;50.890;5.982;2023-01-01T06:17:50;99897.53;;;14.74;57.17
36234;BME280;43467;50.890;5.982;2023-01-01T06:20:16;99919.19;;;14.69;57.65
36234;BME280;43467;50.890;5.982;2023-01-01T06:22:41;99924.84;;;14.77;57.62
36234;BME280;43467;50.890;5.982;2023-01-01T06:25:07;99928.56;;;14.75;57.86
36234;BME280;43467;50.890;5.982;2023-01-01T06:27:36;99930.47;;;14.73;57.80
36234;BME280;43467;50.890;5.982;2023-01-01T06:30:02;99924.59;;;14.68;57.87
36234;BME280;43467;50.890;5.982;2023-01-01T06:32:28;99931.63;;;14.69;58.13
36234;BME280;43467;50.890;5.982;2023-01-01T06:34:53;99944.88;;;14.70;58.22
36234;BME280;43467;50.890;5.982;2023-01-01T06:37:19;99950.38;;;14.67;58.67
36234;BME280;43467;50.890;5.982;2023-01-01T06:39:45;99956.25;;;14.72;58.78
36234;BME280;43467;50.890;5.982;2023-01-01T06:42:10;99964.38;;;14.71;59.21
36234;BME280;43467;50.890;5.982;2023-01-01T06:44:35;99958.59;;;14.64;59.46
36234;BME280;43467;50.890;5.982;2023-01-01T06:47:01;99967.53;;;14.63;59.13
36234;BME280;43467;50.890;5.982;2023-01-01T06:49:26;99971.56;;;14.56;59.78
36234;BME280;43467;50.890;5.982;2023-01-01T06:51:51;99985.97;;;14.54;59.81
36234;BME280;43467;50.890;5.982;2023-01-01T06:54:17;99996.00;;;14.63;59.58
36234;BME280;43467;50.890;5.982;2023-01-01T06:56:42;99997.69;;;14.64;59.90
36234;BME280;43467;50.890;5.982;2023-01-01T06:59:08;100001.72;;;14.57;60.51
36234;BME280;43467;50.890;5.982;2023-01-01T07:01:34;100017.38;;;14.49;60.91
36234;BME280;43467;50.890;5.982;2023-01-01T07:04:03;100017.16;;;14.52;61.72
36234;BME280;43467;50.890;5.982;2023-01-01T07:06:30;100026.59;;;14.43;62.50
36234;BME280;43467;50.890;5.982;2023-01-01T07:08:56;100034.41;;;14.32;63.44
36234;BME280;43467;50.890;5.982;2023-01-01T07:11:22;100042.69;;;14.27;64.23
36234;BME280;43467;50.890;5.982;2023-01-01T07:13:48;100046.50;;;14.23;64.96
36234;BME280;43467;50.890;5.982;2023-01-01T07:16:13;100052.75;;;14.22;65.64
36234;BME280;43467;50.890;5.982;2023-01-01T07:18:39;100049.56;;;14.17;66.77
36234;BME280;43467;50.890;5.982;2023-01-01T07:21:06;100044.53;;;14.13;66.85
36234;BME280;43467;50.890;5.982;2023-01-01T07:23:45;100056.69;;;14.03;67.53
36234;BME280;43467;50.890;5.982;2023-01-01T07:26:10;100045.38;;;13.99;67.36
36234;BME280;43467;50.890;5.982;2023-01-01T07:28:36;100033.88;;;13.98;67.04
36234;BME280;43467;50.890;5.982;2023-01-01T07:31:01;100029.81;;;13.93;67.17
36234;BME280;43467;50.890;5.982;2023-01-01T07:33:26;100017.03;;;13.98;67.10
36234;BME280;43467;50.890;5.982;2023-01-01T07:35:52;100022.56;;;13.95;66.93
36234;BME280;43467;50.890;5.982;2023-01-01T07:38:17;100025.72;;;13.87;67.24
36234;BME280;43467;50.890;5.982;2023-01-01T07:40:43;100037.00;;;13.91;66.74
36234;BME280;43467;50.890;5.982;2023-01-01T07:43:08;100031.50;;;13.94;66.80
36234;BME280;43467;50.890;5.982;2023-01-01T07:45:34;100029.53;;;13.98;66.64
36234;BME280;43467;50.890;5.982;2023-01-01T07:48:00;100042.34;;;13.91;66.85
36234;BME280;43467;50.890;5.982;2023-01-01T07:50:28;100073.13;;;13.95;66.73
36234;BME280;43467;50.890;5.982;2023-01-01T07:52:54;100039.47;;;13.94;66.94
36234;BME280;43467;50.890;5.982;2023-01-01T07:55:19;100048.25;;;13.96;66.32
36234;BME280;43467;50.890;5.982;2023-01-01T07:57:46;100043.13;;;13.93;66.61
36234;BME280;43467;50.890;5.982;2023-01-01T08:00:15;100064.94;;;13.98;66.13
36234;BME280;43467;50.890;5.982;2023-01-01T08:02:41;100071.72;;;14.04;66.07
36234;BME280;43467;50.890;5.982;2023-01-01T08:05:07;100075.22;;;14.04;66.07
36234;BME280;43467;50.890;5.982;2023-01-01T08:07:33;100081.63;;;14.02;66.22
36234;BME280;43467;50.890;5.982;2023-01-01T08:09:58;100075.59;;;13.98;66.33
36234;BME280;43467;50.890;5.982;2023-01-01T08:12:24;100085.78;;;13.91;66.99
36234;BME280;43467;50.890;5.982;2023-01-01T08:14:50;100088.25;;;13.94;66.85
36234;BME280;43467;50.890;5.982;2023-01-01T08:17:15;100092.72;;;13.94;66.85
36234;BME280;43467;50.890;5.982;2023-01-01T08:19:40;100081.50;;;13.89;67.20
36234;BME280;43467;50.890;5.982;2023-01-01T08:22:06;100090.25;;;13.91;67.26
36234;BME280;43467;50.890;5.982;2023-01-01T08:24:31;100087.38;;;13.94;67.30
36234;BME280;43467;50.890;5.982;2023-01-01T08:26:57;100081.13;;;13.95;67.39
36234;BME280;43467;50.890;5.982;2023-01-01T08:29:22;100099.28;;;13.88;67.79
36234;BME280;43467;50.890;5.982;2023-01-01T08:31:47;100117.72;;;13.91;67.88
36234;BME280;43467;50.890;5.982;2023-01-01T08:34:13;100118.59;;;13.92;67.67
36234;BME280;43467;50.890;5.982;2023-01-01T08:36:38;100112.41;;;13.91;67.70
36234;BME280;43467;50.890;5.982;2023-01-01T08:39:05;100114.78;;;13.96;67.50
36234;BME280;43467;50.890;5.982;2023-01-01T08:41:31;100125.13;;;13.86;68.07
36234;BME280;43467;50.890;5.982;2023-01-01T08:43:56;100119.06;;;13.84;68.11
36234;BME280;43467;50.890;5.982;2023-01-01T08:46:22;100125.78;;;13.90;68.01
36234;BME280;43467;50.890;5.982;2023-01-01T08:48:47;100139.69;;;13.95;67.86
36234;BME280;43467;50.890;5.982;2023-01-01T08:51:13;100139.59;;;13.96;68.32
36234;BME280;43467;50.890;5.982;2023-01-01T08:53:38;100155.06;;;13.90;68.63
36234;BME280;43467;50.890;5.982;2023-01-01T08:56:05;100167.53;;;13.89;68.50
36234;BME280;43467;50.890;5.982;2023-01-01T08:58:33;100161.91;;;13.94;68.50
36234;BME280;43467;50.890;5.982;2023-01-01T09:00:59;100145.41;;;13.89;68.52
36234;BME280;43467;50.890;5.982;2023-01-01T09:03:25;100158.13;;;13.84;68.71
36234;BME280;43467;50.890;5.982;2023-01-01T09:05:51;100153.66;;;13.84;68.87
36234;BME280;43467;50.890;5.982;2023-01-01T09:08:17;100165.91;;;13.87;68.93
36234;BME280;43467;50.890;5.982;2023-01-01T09:10:42;100168.22;;;13.93;68.64
36234;BME280;43467;50.890;5.982;2023-01-01T09:13:09;100160.50;;;13.88;68.87
36234;BME280;43467;50.890;5.982;2023-01-01T09:15:35;100163.34;;;13.85;68.80
36234;BME280;43467;50.890;5.982;2023-01-01T09:18:00;100182.00;;;13.85;68.74
36234;BME280;43467;50.890;5.982;2023-01-01T09:20:26;100183.78;;;13.85;68.98
36234;BME280;43467;50.890;5.982;2023-01-01T09:22:52;100184.66;;;13.85;68.79
36234;BME280;43467;50.890;5.982;2023-01-01T09:25:17;100180.34;;;13.83;68.99
36234;BME280;43467;50.890;5.982;2023-01-01T09:27:42;100184.13;;;13.79;68.83
36234;BME280;43467;50.890;5.982;2023-01-01T09:30:08;100178.72;;;13.80;69.00
36234;BME280;43467;50.890;5.982;2023-01-01T09:32:34;100191.94;;;13.82;68.94
36234;BME280;43467;50.890;5.982;2023-01-01T09:34:59;100199.16;;;13.80;69.13
36234;BME280;43467;50.890;5.982;2023-01-01T09:37:25;100185.66;;;13.83;68.93
36234;BME280;43467;50.890;5.982;2023-01-01T09:39:51;100202.56;;;13.82;68.69
36234;BME280;43467;50.890;5.982;2023-01-01T09:42:28;100194.59;;;13.82;68.48
36234;BME280;43467;50.890;5.982;2023-01-01T09:47:45;100198.34;;;13.93;68.27
36234;BME280;43467;50.890;5.982;2023-01-01T09:50:22;100196.63;;;13.92;68.23
36234;BME280;43467;50.890;5.982;2023-01-01T09:52:59;100204.50;;;13.94;68.21
36234;BME280;43467;50.890;5.982;2023-01-01T09:55:26;100192.84;;;13.96;68.29
36234;BME280;43467;50.890;5.982;2023-01-01T09:57:53;100195.88;;;14.05;67.64
36234;BME280;43467;50.890;5.982;2023-01-01T10:00:21;100193.22;;;14.05;67.80
36234;BME280;43467;50.890;5.982;2023-01-01T10:05:48;100202.16;;;14.04;67.66
36234;BME280;43467;50.890;5.982;2023-01-01T10:11:26;100194.84;;;14.07;67.60
36234;BME280;43467;50.890;5.982;2023-01-01T10:13:56;100193.13;;;14.06;67.46
36234;BME280;43467;50.890;5.982;2023-01-01T10:16:33;100183.31;;;14.07;67.74
36234;BME280;43467;50.890;5.982;2023-01-01T10:21:40;100188.69;;;14.21;67.01
36234;BME280;43467;50.890;5.982;2023-01-01T10:26:52;100194.00;;;14.21;67.00
36234;BME280;43467;50.890;5.982;2023-01-01T10:29:41;100192.22;;;14.21;66.79
36234;BME280;43467;50.890;5.982;2023-01-01T10:32:20;100179.25;;;14.15;67.17
36234;BME280;43467;50.890;5.982;2023-01-01T10:34:50;100161.47;;;14.16;67.00
36234;BME280;43467;50.890;5.982;2023-01-01T10:37:15;100162.34;;;14.16;66.80
36234;BME280;43467;50.890;5.982;2023-01-01T10:39:42;100158.91;;;14.14;66.72
36234;BME280;43467;50.890;5.982;2023-01-01T10:42:12;100153.28;;;14.19;66.91
36234;BME280;43467;50.890;5.982;2023-01-01T10:44:38;100158.63;;;14.19;66.70
36234;BME280;43467;50.890;5.982;2023-01-01T10:47:25;100157.00;;;14.16;66.35
36234;BME280;43467;50.890;5.982;2023-01-01T10:49:54;100176.50;;;14.17;66.44
36234;BME280;43467;50.890;5.982;2023-01-01T10:52:34;100174.72;;;14.17;66.33
36234;BME280;43467;50.890;5.982;2023-01-01T10:55:00;100177.38;;;14.17;66.37
36234;BME280;43467;50.890;5.982;2023-01-01T10:59:51;100196.09;;;14.16;66.52
36234;BME280;43467;50.890;5.982;2023-01-01T11:02:22;100196.56;;;14.22;66.13
36234;BME280;43467;50.890;5.982;2023-01-01T11:04:48;100205.31;;;14.24;65.98
36234;BME280;43467;50.890;5.982;2023-01-01T11:07:30;100211.97;;;14.17;66.44
36234;BME280;43467;50.890;5.982;2023-01-01T11:10:02;100216.53;;;14.15;66.27
36234;BME280;43467;50.890;5.982;2023-01-01T11:12:36;100206.06;;;14.12;66.21
36234;BME280;43467;50.890;5.982;2023-01-01T11:15:03;100209.69;;;14.11;66.51
36234;BME280;43467;50.890;5.982;2023-01-01T11:17:31;100216.53;;;14.15;66.33
36234;BME280;43467;50.890;5.982;2023-01-01T11:19:59;100210.06;;;14.19;66.15
36234;BME280;43467;50.890;5.982;2023-01-01T11:25:25;100233.69;;;14.25;66.01
36234;BME280;43467;50.890;5.982;2023-01-01T11:28:12;100237.28;;;14.24;65.84
36234;BME280;43467;50.890;5.982;2023-01-01T11:30:38;100236.88;;;14.16;65.94
36234;BME280;43467;50.890;5.982;2023-01-01T11:33:04;100243.94;;;14.17;65.86
36234;BME280;43467;50.890;5.982;2023-01-01T11:35:32;100234.16;;;14.18;66.02
36234;BME280;43467;50.890;5.982;2023-01-01T11:38:01;100226.63;;;14.24;65.61
36234;BME280;43467;50.890;5.982;2023-01-01T11:40:37;100217.50;;;14.28;65.57
36234;BME280;43467;50.890;5.982;2023-01-01T11:43:15;100216.97;;;14.37;65.42
36234;BME280;43467;50.890;5.982;2023-01-01T11:45:43;100227.63;;;14.37;65.23
36234;BME280;43467;50.890;5.982;2023-01-01T11:48:18;100210.56;;;14.26;65.24
36234;BME280;43467;50.890;5.982;2023-01-01T11:50:57;100218.50;;;14.41;64.94
36234;BME280;43467;50.890;5.982;2023-01-01T11:53:37;100212.69;;;14.49;64.63
36234;BME280;43467;50.890;5.982;2023-01-01T11:56:19;100209.94;;;14.51;64.50
36234;BME280;43467;50.890;5.982;2023-01-01T11:58:54;100200.13;;;14.51;64.43
36234;BME280;43467;50.890;5.982;2023-01-01T12:01:42;100208.03;;;14.53;64.22
36234;BME280;43467;50.890;5.982;2023-01-01T12:12:26;100194.72;;;14.38;64.32
36234;BME280;43467;50.890;5.982;2023-01-01T12:15:04;100196.69;;;14.35;64.63
36234;BME280;43467;50.890;5.982;2023-01-01T12:20:34;100204.09;;;14.30;64.66
36234;BME280;43467;50.890;5.982;2023-01-01T12:23:02;100196.88;;;14.32;64.61
36234;BME280;43467;50.890;5.982;2023-01-01T12:26:03;100207.44;;;14.48;64.02
36234;BME280;43467;50.890;5.982;2023-01-01T12:31:44;100198.72;;;14.46;63.67
36234;BME280;43467;50.890;5.982;2023-01-01T12:34:19;100204.44;;;14.54;63.54
36234;BME280;43467;50.890;5.982;2023-01-01T12:45:25;100203.00;;;14.48;63.40
36234;BME280;43467;50.890;5.982;2023-01-01T12:47:57;100184.75;;;14.42;63.20
36234;BME280;43467;50.890;5.982;2023-01-01T12:50:50;100187.19;;;14.45;63.44
36234;BME280;43467;50.890;5.982;2023-01-01T12:56:01;100196.06;;;14.46;63.32
36234;BME280;43467;50.890;5.982;2023-01-01T13:01:20;100188.78;;;14.33;63.96
36234;BME280;43467;50.890;5.982;2023-01-01T13:03:59;100196.72;;;14.49;63.63
36234;BME280;43467;50.890;5.982;2023-01-01T13:06:35;100198.13;;;14.40;63.79
36234;BME280;43467;50.890;5.982;2023-01-01T13:09:11;100205.28;;;14.40;63.74
36234;BME280;43467;50.890;5.982;2023-01-01T13:11:39;100202.53;;;14.41;64.08
36234;BME280;43467;50.890;5.982;2023-01-01T13:14:06;100218.50;;;14.41;63.88
36234;BME280;43467;50.890;5.982;2023-01-01T13:16:34;100208.03;;;14.38;64.02
36234;BME280;43467;50.890;5.982;2023-01-01T13:19:00;100198.72;;;14.46;63.80
36234;BME280;43467;50.890;5.982;2023-01-01T13:21:26;100195.84;;;14.49;63.72
36234;BME280;43467;50.890;5.982;2023-01-01T13:23:53;100197.78;;;14.47;63.61
36234;BME280;43467;50.890;5.982;2023-01-01T13:50:39;100178.72;;;14.53;63.53
36234;BME280;43467;50.890;5.982;2023-01-01T13:56:00;100170.91;;;14.64;63.21
36234;BME280;43467;50.890;5.982;2023-01-01T13:58:39;100168.47;;;14.47;63.28
36234;BME280;43467;50.890;5.982;2023-01-01T14:03:41;100169.59;;;14.57;63.04
36234;BME280;43467;50.890;5.982;2023-01-01T14:06:23;100150.56;;;14.49;63.19
36234;BME280;43467;50.890;5.982;2023-01-01T14:09:08;100155.53;;;14.40;62.83
36234;BME280;43467;50.890;5.982;2023-01-01T14:11:35;100165.97;;;14.43;62.92
36234;BME280;43467;50.890;5.982;2023-01-01T14:14:00;100170.16;;;14.48;62.93
36234;BME280;43467;50.890;5.982;2023-01-01T14:16:26;100161.50;;;14.44;63.03
36234;BME280;43467;50.890;5.982;2023-01-01T14:18:58;100164.16;;;14.44;63.01
36234;BME280;43467;50.890;5.982;2023-01-01T14:21:31;100162.75;;;14.38;63.02
36234;BME280;43467;50.890;5.982;2023-01-01T14:24:02;100170.63;;;14.40;63.12
36234;BME280;43467;50.890;5.982;2023-01-01T14:26:30;100180.81;;;14.48;62.74
36234;BME280;43467;50.890;5.982;2023-01-01T14:28:57;100171.13;;;14.47;62.82
36234;BME280;43467;50.890;5.982;2023-01-01T14:31:27;100169.22;;;14.49;62.87
36234;BME280;43467;50.890;5.982;2023-01-01T14:33:53;100181.41;;;14.38;63.12
36234;BME280;43467;50.890;5.982;2023-01-01T14:38:46;100197.63;;;14.34;63.33
36234;BME280;43467;50.890;5.982;2023-01-01T14:41:47;100202.59;;;14.26;63.61
36234;BME280;43467;50.890;5.982;2023-01-01T14:44:14;100202.19;;;14.18;64.24
36234;BME280;43467;50.890;5.982;2023-01-01T14:46:48;100205.22;;;14.12;65.06
36234;BME280;43467;50.890;5.982;2023-01-01T14:49:28;100189.63;;;14.06;66.10
36234;BME280;43467;50.890;5.982;2023-01-01T14:52:01;100205.59;;;14.06;66.20
36234;BME280;43467;50.890;5.982;2023-01-01T14:54:37;100219.19;;;14.01;66.88
36234;BME280;43467;50.890;5.982;2023-01-01T14:57:10;100220.72;;;14.05;66.81
36234;BME280;43467;50.890;5.982;2023-01-01T14:59:45;100224.00;;;13.94;67.59